sensor_id;sensor_type;location;lat;lon;timestamp;P1;durP1;ratioP1;P2;durP2;ratioP2
61344;SDS011;47216;42.656;23.232;2022-09-09T00:02:18;9.53;;;7.33;;
61344;SDS011;47216;42.656;23.232;2022-09-09T00:04:48;8.83;;;6.97;;
61344;SDS011;47216;42.656;23.232;2022-09-09T00:07:29;7.80;;;7.00;;
61344;SDS011;47216;42.656;23.232;2022-09-09T00:10:08;9.30;;;6.93;;
61344;SDS011;47216;42.656;23.232;2022-09-09T00:12:46;8.77;;;7.30;;
61344;SDS011;47216;42.656;23.232;2022-09-09T00:15:22;13.73;;;7.03;;
61344;SDS011;47216;42.656;23.232;2022-09-09T00:17:53;8.97;;;7.23;;
61344;SDS011;47216;42.656;23.232;2022-09-09T00:20:28;10.50;;;7.00;;
61344;SDS011;47216;42.656;23.232;2022-09-09T00:23:03;7.70;;;6.27;;
61344;SDS011;47216;42.656;23.232;2022-09-09T00:25:37;9.37;;;7.37;;
61344;SDS011;47216;42.656;23.232;2022-09-09T00:28:13;7.87;;;7.07;;
61344;SDS011;47216;42.656;23.232;2022-09-09T00:30:44;7.97;;;7.07;;
61344;SDS011;47216;42.656;23.232;2022-09-09T00:33:14;7.57;;;6.73;;
61344;SDS011;47216;42.656;23.232;2022-09-09T00:35:46;12.20;;;7.13;;
61344;SDS011;47216;42.656;23.232;2022-09-09T00:38:15;10.47;;;7.33;;
61344;SDS011;47216;42.656;23.232;2022-09-09T00:40:48;10.77;;;7.40;;
61344;SDS011;47216;42.656;23.232;2022-09-09T00:43:23;7.43;;;6.73;;
61344;SDS011;47216;42.656;23.232;2022-09-09T00:48:56;12.73;;;6.77;;
61344;SDS011;47216;42.656;23.232;2022-09-09T00:51:34;7.40;;;6.60;;
61344;SDS011;47216;42.656;23.232;2022-09-09T00:54:20;9.40;;;6.67;;
61344;SDS011;47216;42.656;23.232;2022-09-09T00:57:00;9.67;;;7.23;;
61344;SDS011;47216;42.656;23.232;2022-09-09T00:59:40;8.40;;;7.20;;
61344;SDS011;47216;42.656;23.232;2022-09-09T01:02:13;9.20;;;7.30;;
61344;SDS011;47216;42.656;23.232;2022-09-09T01:04:48;11.97;;;7.10;;
61344;SDS011;47216;42.656;23.232;2022-09-09T01:07:17;9.07;;;7.13;;
61344;SDS011;47216;42.656;23.232;2022-09-09T01:09:50;10.00;;;7.90;;
61344;SDS011;47216;42.656;23.232;2022-09-09T01:12:24;8.30;;;7.37;;
61344;SDS011;47216;42.656;23.232;2022-09-09T01:14:56;8.40;;;7.40;;
61344;SDS011;47216;42.656;23.232;2022-09-09T01:17:30;9.60;;;7.83;;
61344;SDS011;47216;42.656;23.232;2022-09-09T01:20:05;9.10;;;7.60;;
61344;SDS011;47216;42.656;23.232;2022-09-09T01:22:42;10.90;;;7.73;;
61344;SDS011;47216;42.656;23.232;2022-09-09T01:25:22;10.70;;;8.03;;
61344;SDS011;47216;42.656;23.232;2022-09-09T01:27:58;9.40;;;8.23;;
61344;SDS011;47216;42.656;23.232;2022-09-09T01:30:28;8.90;;;7.47;;
61344;SDS011;47216;42.656;23.232;2022-09-09T01:32:55;9.50;;;7.60;;
61344;SDS011;47216;42.656;23.232;2022-09-09T01:35:31;9.10;;;7.63;;
61344;SDS011;47216;42.656;23.232;2022-09-09T01:38:15;10.77;;;7.33;;
61344;SDS011;47216;42.656;23.232;2022-09-09T01:40:44;9.27;;;7.40;;
61344;SDS011;47216;42.656;23.232;2022-09-09T01:43:12;9.20;;;7.30;;
61344;SDS011;47216;42.656;23.232;2022-09-09T01:45:40;16.97;;;10.53;;
61344;SDS011;47216;42.656;23.232;2022-09-09T01:48:08;10.63;;;7.27;;
61344;SDS011;47216;42.656;23.232;2022-09-09T01:50:35;10.00;;;7.47;;
61344;SDS011;47216;42.656;23.232;2022-09-09T01:53:02;7.83;;;6.60;;
61344;SDS011;47216;42.656;23.232;2022-09-09T01:55:30;8.63;;;6.57;;
61344;SDS011;47216;42.656;23.232;2022-09-09T01:58:14;9.10;;;6.73;;
61344;SDS011;47216;42.656;23.232;2022-09-09T02:00:50;7.17;;;6.50;;
61344;SDS011;47216;42.656;23.232;2022-09-09T02:03:24;9.50;;;7.23;;
61344;SDS011;47216;42.656;23.232;2022-09-09T02:05:55;9.80;;;7.63;;
61344;SDS011;47216;42.656;23.232;2022-09-09T02:08:29;9.40;;;7.23;;
61344;SDS011;47216;42.656;23.232;2022-09-09T02:11:05;8.40;;;7.50;;
61344;SDS011;47216;42.656;23.232;2022-09-09T02:13:36;10.37;;;7.57;;
61344;SDS011;47216;42.656;23.232;2022-09-09T02:16:06;12.07;;;8.17;;
61344;SDS011;47216;42.656;23.232;2022-09-09T02:18:38;10.47;;;8.63;;
61344;SDS011;47216;42.656;23.232;2022-09-09T02:21:09;9.40;;;7.87;;
61344;SDS011;47216;42.656;23.232;2022-09-09T02:23:39;11.63;;;7.63;;
61344;SDS011;47216;42.656;23.232;2022-09-09T02:26:08;9.13;;;7.73;;
61344;SDS011;47216;42.656;23.232;2022-09-09T02:28:39;8.40;;;7.33;;
61344;SDS011;47216;42.656;23.232;2022-09-09T02:31:07;11.57;;;7.07;;
61344;SDS011;47216;42.656;23.232;2022-09-09T02:33:35;9.27;;;7.33;;
61344;SDS011;47216;42.656;23.232;2022-09-09T02:36:06;10.07;;;7.43;;
61344;SDS011;47216;42.656;23.232;2022-09-09T02:38:37;11.47;;;7.50;;
61344;SDS011;47216;42.656;23.232;2022-09-09T02:41:08;12.13;;;7.40;;
61344;SDS011;47216;42.656;23.232;2022-09-09T02:43:35;9.67;;;6.90;;
61344;SDS011;47216;42.656;23.232;2022-09-09T02:46:06;10.17;;;7.23;;
61344;SDS011;47216;42.656;23.232;2022-09-09T02:48:43;10.27;;;7.60;;
61344;SDS011;47216;42.656;23.232;2022-09-09T02:51:18;9.10;;;7.73;;
61344;SDS011;47216;42.656;23.232;2022-09-09T02:53:56;9.00;;;7.03;;
61344;SDS011;47216;42.656;23.232;2022-09-09T02:56:30;11.13;;;6.60;;
61344;SDS011;47216;42.656;23.232;2022-09-09T02:59:02;7.87;;;6.97;;
61344;SDS011;47216;42.656;23.232;2022-09-09T03:01:31;9.60;;;7.00;;
61344;SDS011;47216;42.656;23.232;2022-09-09T03:03:58;7.90;;;7.00;;
61344;SDS011;47216;42.656;23.232;2022-09-09T03:06:25;9.10;;;7.63;;
61344;SDS011;47216;42.656;23.232;2022-09-09T03:08:53;8.33;;;7.50;;
61344;SDS011;47216;42.656;23.232;2022-09-09T03:11:20;9.13;;;7.93;;
61344;SDS011;47216;42.656;23.232;2022-09-09T03:13:46;10.57;;;7.60;;
61344;SDS011;47216;42.656;23.232;2022-09-09T03:16:14;8.33;;;7.33;;
61344;SDS011;47216;42.656;23.232;2022-09-09T03:18:42;8.77;;;7.20;;
61344;SDS011;47216;42.656;23.232;2022-09-09T03:21:11;9.40;;;7.43;;
61344;SDS011;47216;42.656;23.232;2022-09-09T03:23:37;9.90;;;7.80;;
61344;SDS011;47216;42.656;23.232;2022-09-09T03:26:04;9.23;;;7.43;;
61344;SDS011;47216;42.656;23.232;2022-09-09T03:28:31;15.77;;;7.77;;
61344;SDS011;47216;42.656;23.232;2022-09-09T03:30:59;9.13;;;6.93;;
61344;SDS011;47216;42.656;23.232;2022-09-09T03:33:26;9.27;;;7.13;;
61344;SDS011;47216;42.656;23.232;2022-09-09T03:35:56;11.13;;;7.17;;
61344;SDS011;47216;42.656;23.232;2022-09-09T03:38:23;10.13;;;7.20;;
61344;SDS011;47216;42.656;23.232;2022-09-09T03:40:50;9.57;;;7.70;;
61344;SDS011;47216;42.656;23.232;2022-09-09T03:43:20;9.77;;;7.57;;
61344;SDS011;47216;42.656;23.232;2022-09-09T03:45:47;9.27;;;7.20;;
61344;SDS011;47216;42.656;23.232;2022-09-09T03:48:14;10.07;;;6.90;;
61344;SDS011;47216;42.656;23.232;2022-09-09T03:50:43;10.17;;;7.17;;
61344;SDS011;47216;42.656;23.232;2022-09-09T03:53:12;7.20;;;6.50;;
61344;SDS011;47216;42.656;23.232;2022-09-09T03:55:43;8.80;;;6.70;;
61344;SDS011;47216;42.656;23.232;2022-09-09T03:58:10;11.43;;;6.60;;
61344;SDS011;47216;42.656;23.232;2022-09-09T04:00:38;12.37;;;6.97;;
61344;SDS011;47216;42.656;23.232;2022-09-09T04:03:07;8.63;;;7.13;;
61344;SDS011;47216;42.656;23.232;2022-09-09T04:05:34;10.00;;;7.33;;
61344;SDS011;47216;42.656;23.232;2022-09-09T04:08:04;8.97;;;7.20;;
61344;SDS011;47216;42.656;23.232;2022-09-09T04:10:33;13.70;;;7.23;;
61344;SDS011;47216;42.656;23.232;2022-09-09T04:13:01;9.63;;;7.40;;
61344;SDS011;47216;42.656;23.232;2022-09-09T04:15:28;8.17;;;7.27;;
61344;SDS011;47216;42.656;23.232;2022-09-09T04:17:55;8.17;;;6.60;;
61344;SDS011;47216;42.656;23.232;2022-09-09T04:20:22;11.57;;;7.40;;
61344;SDS011;47216;42.656;23.232;2022-09-09T04:22:49;8.40;;;7.13;;
61344;SDS011;47216;42.656;23.232;2022-09-09T04:25:15;14.00;;;7.53;;
61344;SDS011;47216;42.656;23.232;2022-09-09T04:27:43;12.87;;;8.27;;
61344;SDS011;47216;42.656;23.232;2022-09-09T04:30:10;9.57;;;7.27;;
61344;SDS011;47216;42.656;23.232;2022-09-09T04:32:38;14.13;;;8.23;;
61344;SDS011;47216;42.656;23.232;2022-09-09T04:35:05;9.90;;;7.73;;
61344;SDS011;47216;42.656;23.232;2022-09-09T04:37:32;11.50;;;7.63;;
61344;SDS011;47216;42.656;23.232;2022-09-09T04:39:59;12.13;;;7.83;;
61344;SDS011;47216;42.656;23.232;2022-09-09T04:42:27;9.50;;;7.23;;
61344;SDS011;47216;42.656;23.232;2022-09-09T04:44:55;12.77;;;7.97;;
61344;SDS011;47216;42.656;23.232;2022-09-09T04:47:22;10.10;;;8.20;;
61344;SDS011;47216;42.656;23.232;2022-09-09T04:49:49;10.90;;;7.97;;
61344;SDS011;47216;42.656;23.232;2022-09-09T04:52:17;11.90;;;9.03;;
61344;SDS011;47216;42.656;23.232;2022-09-09T04:54:43;11.70;;;8.40;;
61344;SDS011;47216;42.656;23.232;2022-09-09T04:57:10;10.73;;;7.50;;
61344;SDS011;47216;42.656;23.232;2022-09-09T04:59:37;19.07;;;9.70;;
61344;SDS011;47216;42.656;23.232;2022-09-09T05:02:06;14.20;;;8.03;;
61344;SDS011;47216;42.656;23.232;2022-09-09T05:04:33;17.00;;;8.90;;
61344;SDS011;47216;42.656;23.232;2022-09-09T05:07:00;10.60;;;8.47;;
61344;SDS011;47216;42.656;23.232;2022-09-09T05:09:26;13.37;;;8.77;;
61344;SDS011;47216;42.656;23.232;2022-09-09T05:11:54;17.27;;;8.20;;
61344;SDS011;47216;42.656;23.232;2022-09-09T05:14:21;16.70;;;7.93;;
61344;SDS011;47216;42.656;23.232;2022-09-09T05:16:47;20.23;;;8.33;;
61344;SDS011;47216;42.656;23.232;2022-09-09T05:19:16;26.03;;;8.67;;
61344;SDS011;47216;42.656;23.232;2022-09-09T05:21:45;37.13;;;8.97;;
61344;SDS011;47216;42.656;23.232;2022-09-09T05:24:11;25.77;;;9.00;;
61344;SDS011;47216;42.656;23.232;2022-09-09T05:26:38;24.07;;;8.93;;
61344;SDS011;47216;42.656;23.232;2022-09-09T05:29:05;20.93;;;9.03;;
61344;SDS011;47216;42.656;23.232;2022-09-09T05:31:33;15.30;;;9.40;;
61344;SDS011;47216;42.656;23.232;2022-09-09T05:34:00;15.17;;;8.20;;
61344;SDS011;47216;42.656;23.232;2022-09-09T05:36:28;29.57;;;9.37;;
61344;SDS011;47216;42.656;23.232;2022-09-09T05:38:55;14.57;;;8.83;;
61344;SDS011;47216;42.656;23.232;2022-09-09T05:41:21;17.37;;;7.97;;
61344;SDS011;47216;42.656;23.232;2022-09-09T05:43:49;12.67;;;8.20;;
61344;SDS011;47216;42.656;23.232;2022-09-09T05:46:16;11.47;;;9.10;;
61344;SDS011;47216;42.656;23.232;2022-09-09T05:48:44;12.90;;;8.93;;
61344;SDS011;47216;42.656;23.232;2022-09-09T05:51:13;14.93;;;9.93;;
61344;SDS011;47216;42.656;23.232;2022-09-09T05:53:44;12.10;;;9.03;;
61344;SDS011;47216;42.656;23.232;2022-09-09T05:56:12;10.77;;;8.97;;
61344;SDS011;47216;42.656;23.232;2022-09-09T05:58:40;11.93;;;9.47;;
61344;SDS011;47216;42.656;23.232;2022-09-09T06:01:09;14.63;;;8.67;;
61344;SDS011;47216;42.656;23.232;2022-09-09T06:03:39;17.80;;;9.23;;
61344;SDS011;47216;42.656;23.232;2022-09-09T06:06:07;11.43;;;8.93;;
61344;SDS011;47216;42.656;23.232;2022-09-09T06:08:36;11.83;;;8.83;;
61344;SDS011;47216;42.656;23.232;2022-09-09T06:11:06;12.10;;;9.33;;
61344;SDS011;47216;42.656;23.232;2022-09-09T06:13:35;11.77;;;8.93;;
61344;SDS011;47216;42.656;23.232;2022-09-09T06:16:05;16.43;;;9.20;;
61344;SDS011;47216;42.656;23.232;2022-09-09T06:18:32;9.43;;;8.10;;
61344;SDS011;47216;42.656;23.232;2022-09-09T06:21:00;15.03;;;8.93;;
61344;SDS011;47216;42.656;23.232;2022-09-09T06:23:29;14.77;;;8.43;;
61344;SDS011;47216;42.656;23.232;2022-09-09T06:26:00;15.30;;;7.77;;
61344;SDS011;47216;42.656;23.232;2022-09-09T06:28:33;13.93;;;7.90;;
61344;SDS011;47216;42.656;23.232;2022-09-09T06:31:00;14.47;;;8.97;;
61344;SDS011;47216;42.656;23.232;2022-09-09T06:33:30;15.40;;;7.90;;
61344;SDS011;47216;42.656;23.232;2022-09-09T06:36:00;13.50;;;8.67;;
61344;SDS011;47216;42.656;23.232;2022-09-09T06:38:28;11.87;;;8.00;;
61344;SDS011;47216;42.656;23.232;2022-09-09T06:40:56;10.30;;;8.33;;
61344;SDS011;47216;42.656;23.232;2022-09-09T06:43:24;12.40;;;9.47;;
61344;SDS011;47216;42.656;23.232;2022-09-09T06:45:56;15.50;;;8.20;;
61344;SDS011;47216;42.656;23.232;2022-09-09T06:48:24;16.63;;;10.03;;
61344;SDS011;47216;42.656;23.232;2022-09-09T06:50:59;15.50;;;10.67;;
61344;SDS011;47216;42.656;23.232;2022-09-09T06:53:27;13.57;;;9.40;;
61344;SDS011;47216;42.656;23.232;2022-09-09T06:55:54;15.17;;;9.37;;
61344;SDS011;47216;42.656;23.232;2022-09-09T06:58:21;14.83;;;9.10;;
61344;SDS011;47216;42.656;23.232;2022-09-09T07:00:48;13.90;;;8.90;;
61344;SDS011;47216;42.656;23.232;2022-09-09T07:03:16;16.67;;;9.90;;
61344;SDS011;47216;42.656;23.232;2022-09-09T07:05:43;11.97;;;9.10;;
61344;SDS011;47216;42.656;23.232;2022-09-09T07:08:10;14.97;;;9.63;;
61344;SDS011;47216;42.656;23.232;2022-09-09T07:10:37;11.93;;;9.27;;
61344;SDS011;47216;42.656;23.232;2022-09-09T07:13:04;13.88;;;9.30;;
61344;SDS011;47216;42.656;23.232;2022-09-09T07:15:30;14.02;;;8.65;;
61344;SDS011;47216;42.656;23.232;2022-09-09T07:18:00;10.35;;;8.55;;
61344;SDS011;47216;42.656;23.232;2022-09-09T07:20:29;14.73;;;8.07;;
61344;SDS011;47216;42.656;23.232;2022-09-09T07:22:56;12.25;;;8.30;;
61344;SDS011;47216;42.656;23.232;2022-09-09T07:25:23;11.45;;;7.60;;
61344;SDS011;47216;42.656;23.232;2022-09-09T07:27:51;12.43;;;8.52;;
61344;SDS011;47216;42.656;23.232;2022-09-09T07:30:18;11.73;;;8.30;;
61344;SDS011;47216;42.656;23.232;2022-09-09T07:32:45;21.38;;;8.98;;
61344;SDS011;47216;42.656;23.232;2022-09-09T07:35:12;12.98;;;9.23;;
61344;SDS011;47216;42.656;23.232;2022-09-09T07:37:40;16.13;;;9.55;;
61344;SDS011;47216;42.656;23.232;2022-09-09T07:40:07;12.85;;;9.82;;
61344;SDS011;47216;42.656;23.232;2022-09-09T07:42:35;13.85;;;8.65;;
61344;SDS011;47216;42.656;23.232;2022-09-09T07:45:02;21.75;;;9.38;;
61344;SDS011;47216;42.656;23.232;2022-09-09T07:47:30;11.23;;;9.18;;
61344;SDS011;47216;42.656;23.232;2022-09-09T07:49:58;14.00;;;9.30;;
61344;SDS011;47216;42.656;23.232;2022-09-09T07:52:24;13.23;;;9.07;;
61344;SDS011;47216;42.656;23.232;2022-09-09T07:54:53;12.07;;;9.57;;
61344;SDS011;47216;42.656;23.232;2022-09-09T07:57:21;14.82;;;9.15;;
61344;SDS011;47216;42.656;23.232;2022-09-09T07:59:48;15.13;;;9.43;;
61344;SDS011;47216;42.656;23.232;2022-09-09T08:02:15;15.73;;;9.80;;
61344;SDS011;47216;42.656;23.232;2022-09-09T08:04:42;19.73;;;10.50;;
61344;SDS011;47216;42.656;23.232;2022-09-09T08:07:09;13.52;;;8.70;;
61344;SDS011;47216;42.656;23.232;2022-09-09T08:09:36;14.27;;;10.02;;
61344;SDS011;47216;42.656;23.232;2022-09-09T08:12:04;13.90;;;9.18;;
61344;SDS011;47216;42.656;23.232;2022-09-09T08:14:34;12.02;;;8.75;;
61344;SDS011;47216;42.656;23.232;2022-09-09T08:17:03;12.98;;;9.05;;
61344;SDS011;47216;42.656;23.232;2022-09-09T08:19:30;14.55;;;9.00;;
61344;SDS011;47216;42.656;23.232;2022-09-09T08:21:59;12.82;;;8.77;;
61344;SDS011;47216;42.656;23.232;2022-09-09T08:24:26;15.40;;;9.20;;
61344;SDS011;47216;42.656;23.232;2022-09-09T08:26:54;15.63;;;9.05;;
61344;SDS011;47216;42.656;23.232;2022-09-09T08:29:23;16.10;;;9.68;;
61344;SDS011;47216;42.656;23.232;2022-09-09T08:31:50;11.60;;;9.27;;
61344;SDS011;47216;42.656;23.232;2022-09-09T08:34:19;14.43;;;9.45;;
61344;SDS011;47216;42.656;23.232;2022-09-09T08:36:47;10.13;;;8.45;;
61344;SDS011;47216;42.656;23.232;2022-09-09T08:39:15;17.23;;;9.43;;
61344;SDS011;47216;42.656;23.232;2022-09-09T08:41:51;10.50;;;9.40;;
61344;SDS011;47216;42.656;23.232;2022-09-09T08:44:46;15.85;;;9.48;;
61344;SDS011;47216;42.656;23.232;2022-09-09T08:47:27;15.32;;;8.73;;
61344;SDS011;47216;42.656;23.232;2022-09-09T08:50:07;15.15;;;9.27;;
61344;SDS011;47216;42.656;23.232;2022-09-09T08:52:47;16.45;;;9.90;;
61344;SDS011;47216;42.656;23.232;2022-09-09T08:55:24;12.35;;;9.45;;
61344;SDS011;47216;42.656;23.232;2022-09-09T08:57:57;13.40;;;8.80;;
61344;SDS011;47216;42.656;23.232;2022-09-09T09:00:30;11.57;;;8.30;;
61344;SDS011;47216;42.656;23.232;2022-09-09T09:03:05;11.13;;;8.95;;
61344;SDS011;47216;42.656;23.232;2022-09-09T09:05:41;14.50;;;8.60;;
61344;SDS011;47216;42.656;23.232;2022-09-09T09:08:16;12.10;;;8.23;;
61344;SDS011;47216;42.656;23.232;2022-09-09T09:10:51;13.70;;;8.93;;
61344;SDS011;47216;42.656;23.232;2022-09-09T09:13:24;12.07;;;8.38;;
61344;SDS011;47216;42.656;23.232;2022-09-09T09:15:58;12.40;;;7.47;;
61344;SDS011;47216;42.656;23.232;2022-09-09T09:18:29;11.25;;;7.85;;
61344;SDS011;47216;42.656;23.232;2022-09-09T09:20:58;15.43;;;7.65;;
61344;SDS011;47216;42.656;23.232;2022-09-09T09:23:33;12.15;;;7.05;;
61344;SDS011;47216;42.656;23.232;2022-09-09T09:26:09;14.27;;;7.93;;
61344;SDS011;47216;42.656;23.232;2022-09-09T09:28:37;15.25;;;7.40;;
61344;SDS011;47216;42.656;23.232;2022-09-09T09:31:08;14.75;;;7.38;;
61344;SDS011;47216;42.656;23.232;2022-09-09T09:33:38;11.23;;;7.55;;
61344;SDS011;47216;42.656;23.232;2022-09-09T09:36:13;11.40;;;7.43;;
61344;SDS011;47216;42.656;23.232;2022-09-09T09:38:51;12.35;;;7.20;;
61344;SDS011;47216;42.656;23.232;2022-09-09T09:41:34;11.30;;;7.18;;
61344;SDS011;47216;42.656;23.232;2022-09-09T09:44:04;17.85;;;6.68;;
61344;SDS011;47216;42.656;23.232;2022-09-09T09:46:33;8.63;;;6.93;;
61344;SDS011;47216;42.656;23.232;2022-09-09T09:49:02;13.30;;;6.20;;
61344;SDS011;47216;42.656;23.232;2022-09-09T09:51:31;8.95;;;5.97;;
61344;SDS011;47216;42.656;23.232;2022-09-09T09:54:08;10.82;;;6.55;;
61344;SDS011;47216;42.656;23.232;2022-09-09T09:56:41;12.27;;;6.55;;
61344;SDS011;47216;42.656;23.232;2022-09-09T09:59:19;12.05;;;6.30;;
61344;SDS011;47216;42.656;23.232;2022-09-09T10:01:49;8.82;;;6.45;;
61344;SDS011;47216;42.656;23.232;2022-09-09T10:04:17;11.63;;;6.43;;
61344;SDS011;47216;42.656;23.232;2022-09-09T10:06:48;8.32;;;5.75;;
61344;SDS011;47216;42.656;23.232;2022-09-09T10:09:20;15.43;;;6.00;;
61344;SDS011;47216;42.656;23.232;2022-09-09T10:11:50;11.55;;;6.25;;
61344;SDS011;47216;42.656;23.232;2022-09-09T10:14:24;10.15;;;6.20;;
61344;SDS011;47216;42.656;23.232;2022-09-09T10:17:06;13.55;;;7.25;;
61344;SDS011;47216;42.656;23.232;2022-09-09T10:19:42;11.05;;;7.07;;
61344;SDS011;47216;42.656;23.232;2022-09-09T10:22:25;9.65;;;6.07;;
61344;SDS011;47216;42.656;23.232;2022-09-09T10:28:01;13.48;;;5.80;;
61344;SDS011;47216;42.656;23.232;2022-09-09T10:30:46;9.50;;;6.18;;
61344;SDS011;47216;42.656;23.232;2022-09-09T10:33:25;11.02;;;7.32;;
61344;SDS011;47216;42.656;23.232;2022-09-09T10:36:01;9.45;;;6.38;;
61344;SDS011;47216;42.656;23.232;2022-09-09T10:38:36;8.70;;;6.55;;
61344;SDS011;47216;42.656;23.232;2022-09-09T10:41:13;6.65;;;5.88;;
61344;SDS011;47216;42.656;23.232;2022-09-09T10:43:58;9.73;;;6.63;;
61344;SDS011;47216;42.656;23.232;2022-09-09T10:46:43;9.40;;;6.63;;
61344;SDS011;47216;42.656;23.232;2022-09-09T10:49:24;12.93;;;6.95;;
61344;SDS011;47216;42.656;23.232;2022-09-09T10:52:04;13.63;;;7.57;;
61344;SDS011;47216;42.656;23.232;2022-09-09T10:54:42;13.48;;;7.95;;
61344;SDS011;47216;42.656;23.232;2022-09-09T10:57:18;11.90;;;6.80;;
61344;SDS011;47216;42.656;23.232;2022-09-09T10:59:54;9.43;;;7.05;;
61344;SDS011;47216;42.656;23.232;2022-09-09T11:02:26;12.35;;;6.43;;
61344;SDS011;47216;42.656;23.232;2022-09-09T11:04:57;15.70;;;6.72;;
61344;SDS011;47216;42.656;23.232;2022-09-09T11:07:32;13.15;;;6.60;;
61344;SDS011;47216;42.656;23.232;2022-09-09T11:10:06;8.93;;;6.35;;
61344;SDS011;47216;42.656;23.232;2022-09-09T11:12:42;9.07;;;5.72;;
61344;SDS011;47216;42.656;23.232;2022-09-09T11:15:14;12.00;;;6.63;;
61344;SDS011;47216;42.656;23.232;2022-09-09T11:17:46;13.63;;;6.82;;
61344;SDS011;47216;42.656;23.232;2022-09-09T11:20:17;19.27;;;7.45;;
61344;SDS011;47216;42.656;23.232;2022-09-09T11:22:46;11.40;;;6.60;;
61344;SDS011;47216;42.656;23.232;2022-09-09T11:25:17;16.10;;;6.68;;
61344;SDS011;47216;42.656;23.232;2022-09-09T11:27:52;16.58;;;6.40;;
61344;SDS011;47216;42.656;23.232;2022-09-09T11:30:28;13.13;;;6.35;;
61344;SDS011;47216;42.656;23.232;2022-09-09T11:33:07;9.27;;;6.05;;
61344;SDS011;47216;42.656;23.232;2022-09-09T11:36:03;14.57;;;6.47;;
61344;SDS011;47216;42.656;23.232;2022-09-09T11:38:45;9.90;;;6.65;;
61344;SDS011;47216;42.656;23.232;2022-09-09T11:41:13;10.52;;;6.88;;
61344;SDS011;47216;42.656;23.232;2022-09-09T11:43:42;9.52;;;6.13;;
61344;SDS011;47216;42.656;23.232;2022-09-09T11:46:11;13.93;;;6.90;;
61344;SDS011;47216;42.656;23.232;2022-09-09T11:48:41;6.88;;;6.22;;
61344;SDS011;47216;42.656;23.232;2022-09-09T11:51:12;11.55;;;6.43;;
61344;SDS011;47216;42.656;23.232;2022-09-09T11:53:53;13.15;;;7.00;;
61344;SDS011;47216;42.656;23.232;2022-09-09T11:56:26;11.00;;;6.50;;
61344;SDS011;47216;42.656;23.232;2022-09-09T11:59:00;13.15;;;6.93;;
61344;SDS011;47216;42.656;23.232;2022-09-09T12:01:30;11.82;;;5.85;;
61344;SDS011;47216;42.656;23.232;2022-09-09T12:07:01;11.25;;;6.78;;
61344;SDS011;47216;42.656;23.232;2022-09-09T12:09:44;8.07;;;6.18;;
61344;SDS011;47216;42.656;23.232;2022-09-09T12:17:49;7.30;;;5.32;;
61344;SDS011;47216;42.656;23.232;2022-09-09T12:20:19;9.55;;;5.45;;
61344;SDS011;47216;42.656;23.232;2022-09-09T12:22:53;12.50;;;5.10;;
61344;SDS011;47216;42.656;23.232;2022-09-09T12:25:31;10.77;;;5.60;;
61344;SDS011;47216;42.656;23.232;2022-09-09T12:28:11;8.80;;;4.93;;
61344;SDS011;47216;42.656;23.232;2022-09-09T12:30:44;8.25;;;5.07;;
61344;SDS011;47216;42.656;23.232;2022-09-09T12:33:18;6.45;;;4.78;;
61344;SDS011;47216;42.656;23.232;2022-09-09T12:35:48;10.25;;;4.60;;
61344;SDS011;47216;42.656;23.232;2022-09-09T12:38:25;8.88;;;5.20;;
61344;SDS011;47216;42.656;23.232;2022-09-09T12:40:56;8.43;;;4.65;;
61344;SDS011;47216;42.656;23.232;2022-09-09T12:43:26;11.50;;;4.60;;
61344;SDS011;47216;42.656;23.232;2022-09-09T12:45:54;10.73;;;5.22;;
61344;SDS011;47216;42.656;23.232;2022-09-09T12:48:28;9.25;;;4.47;;
61344;SDS011;47216;42.656;23.232;2022-09-09T12:50:59;9.38;;;5.50;;
61344;SDS011;47216;42.656;23.232;2022-09-09T12:53:29;5.82;;;4.40;;
61344;SDS011;47216;42.656;23.232;2022-09-09T12:55:59;10.43;;;5.22;;
61344;SDS011;47216;42.656;23.232;2022-09-09T12:58:28;8.82;;;4.55;;
61344;SDS011;47216;42.656;23.232;2022-09-09T13:00:59;12.07;;;5.60;;
61344;SDS011;47216;42.656;23.232;2022-09-09T13:03:30;9.20;;;5.07;;
61344;SDS011;47216;42.656;23.232;2022-09-09T13:05:58;11.40;;;5.22;;
61344;SDS011;47216;42.656;23.232;2022-09-09T13:08:38;7.35;;;4.57;;
61344;SDS011;47216;42.656;23.232;2022-09-09T13:11:06;9.10;;;4.82;;
61344;SDS011;47216;42.656;23.232;2022-09-09T13:13:39;8.48;;;4.75;;
61344;SDS011;47216;42.656;23.232;2022-09-09T13:16:21;12.98;;;5.80;;
61344;SDS011;47216;42.656;23.232;2022-09-09T13:18:50;10.15;;;5.30;;
61344;SDS011;47216;42.656;23.232;2022-09-09T13:21:17;9.57;;;4.75;;
61344;SDS011;47216;42.656;23.232;2022-09-09T13:23:49;11.20;;;4.60;;
61344;SDS011;47216;42.656;23.232;2022-09-09T13:26:21;14.38;;;5.05;;
61344;SDS011;47216;42.656;23.232;2022-09-09T13:28:49;9.00;;;4.53;;
61344;SDS011;47216;42.656;23.232;2022-09-09T13:31:21;6.22;;;4.13;;
61344;SDS011;47216;42.656;23.232;2022-09-09T13:33:49;9.02;;;4.95;;
61344;SDS011;47216;42.656;23.232;2022-09-09T13:36:26;5.63;;;4.45;;
61344;SDS011;47216;42.656;23.232;2022-09-09T13:38:57;10.82;;;5.25;;
61344;SDS011;47216;42.656;23.232;2022-09-09T13:41:27;8.82;;;5.20;;
61344;SDS011;47216;42.656;23.232;2022-09-09T13:43:56;9.02;;;5.60;;
61344;SDS011;47216;42.656;23.232;2022-09-09T13:46:31;13.40;;;6.50;;
61344;SDS011;47216;42.656;23.232;2022-09-09T13:49:00;13.18;;;6.00;;
61344;SDS011;47216;42.656;23.232;2022-09-09T13:51:44;8.48;;;6.00;;
61344;SDS011;47216;42.656;23.232;2022-09-09T13:54:14;10.45;;;5.85;;
61344;SDS011;47216;42.656;23.232;2022-09-09T13:56:42;9.75;;;4.75;;
61344;SDS011;47216;42.656;23.232;2022-09-09T13:59:12;10.95;;;5.18;;
61344;SDS011;47216;42.656;23.232;2022-09-09T14:01:40;9.90;;;5.70;;
61344;SDS011;47216;42.656;23.232;2022-09-09T14:04:07;8.20;;;5.05;;
61344;SDS011;47216;42.656;23.232;2022-09-09T14:06:34;10.25;;;5.60;;
61344;SDS011;47216;42.656;23.232;2022-09-09T14:09:03;10.30;;;5.18;;
61344;SDS011;47216;42.656;23.232;2022-09-09T14:11:31;13.13;;;4.75;;
61344;SDS011;47216;42.656;23.232;2022-09-09T14:13:58;10.95;;;5.07;;
61344;SDS011;47216;42.656;23.232;2022-09-09T14:16:26;10.88;;;5.35;;
61344;SDS011;47216;42.656;23.232;2022-09-09T14:18:53;8.48;;;5.00;;
61344;SDS011;47216;42.656;23.232;2022-09-09T14:21:21;10.55;;;5.50;;
61344;SDS011;47216;42.656;23.232;2022-09-09T14:23:48;14.25;;;5.20;;
61344;SDS011;47216;42.656;23.232;2022-09-09T14:26:15;12.15;;;5.80;;
61344;SDS011;47216;42.656;23.232;2022-09-09T14:28:45;17.80;;;5.90;;
61344;SDS011;47216;42.656;23.232;2022-09-09T14:31:12;10.32;;;5.75;;
61344;SDS011;47216;42.656;23.232;2022-09-09T14:33:39;10.32;;;5.95;;
61344;SDS011;47216;42.656;23.232;2022-09-09T14:36:06;14.05;;;5.28;;
61344;SDS011;47216;42.656;23.232;2022-09-09T14:38:34;9.95;;;4.95;;
61344;SDS011;47216;42.656;23.232;2022-09-09T14:41:04;5.30;;;4.03;;
61344;SDS011;47216;42.656;23.232;2022-09-09T14:43:31;5.88;;;4.47;;
61344;SDS011;47216;42.656;23.232;2022-09-09T14:46:05;7.75;;;4.00;;
61344;SDS011;47216;42.656;23.232;2022-09-09T14:48:32;10.65;;;4.47;;
61344;SDS011;47216;42.656;23.232;2022-09-09T14:51:04;8.43;;;4.30;;
61344;SDS011;47216;42.656;23.232;2022-09-09T14:53:32;8.60;;;4.70;;
61344;SDS011;47216;42.656;23.232;2022-09-09T14:56:03;6.20;;;3.80;;
61344;SDS011;47216;42.656;23.232;2022-09-09T14:58:33;7.82;;;4.00;;
61344;SDS011;47216;42.656;23.232;2022-09-09T15:01:05;15.88;;;4.32;;
61344;SDS011;47216;42.656;23.232;2022-09-09T15:03:34;8.48;;;4.47;;